Hidden Hills, California
Current Conditions -  °F | °C
As of 4:51 AM on Sunday 23 Nov 2014 (Local Time) from KVNY Reporting Station
Clear Clear  
Wind Chill: 61°   Ceiling: Unl
Heat Index: 61°   Visibility: 10mi
Dew Point: 41°   Wind: 18mph
Humidity: 48%   Direction: 360°N
Pressure: 30.07"   Gusts: 26mph
Location:  34.1257°N, 118.676°W
Report Text: KVNY 231251Z 36016G23KT 10SM CLR 16/05 A3007 RMK AO2 PK WND 01026/1240 SLP176 T01610050
Loading
Personal Weather Stations






























Interactive Weather Map New forecast layout! Learn more

10-Day Weather Forecast

Advertisements
Track Severe Weather on mobile